< < Back
Terminal Aerodrome Forecast


Current Version              Previous Versions:   1  2  3  4  5  6  7  8  9  

Terminal Aerodrome Forecast

825
FTUS42 KFFC 010520
TAFFTY
TAF
KFTY 010520Z 0106/0206 VRB03KT P6SM BKN150
     FM011400 14004KT P6SM SCT025 BKN050
     FM011800 17006KT P6SM VCSH OVC025
     FM012000 17007KT 5SM -RA BR OVC015
     FM012300 16007KT 2SM -RA BR OVC007
     FM020400 23012KT 2SM -RA BR OVC004=

Latest METAR

978
SAUS70 KWBC 010500 RRK
MTRFTY
METAR KFTY 010453Z 00000KT 10SM CLR 06/M03 A3026 RMK AO2 SLP248
T00561028 401281033


USA.gov is the U.S. government's official web portal to all federal, state and local government web resources and services.